sensor_id;sensor_type;location;lat;lon;timestamp;temperature;humidity
26595;DHT22;14238;49.496;8.154;2023-04-28T00:01:27;11.20;99.90
26595;DHT22;14238;49.496;8.154;2023-04-28T00:03:53;11.20;99.90
26595;DHT22;14238;49.496;8.154;2023-04-28T00:06:19;11.30;99.90
26595;DHT22;14238;49.496;8.154;2023-04-28T00:08:45;11.20;99.90
26595;DHT22;14238;49.496;8.154;2023-04-28T00:11:10;10.60;99.90
26595;DHT22;14238;49.496;8.154;2023-04-28T00:13:37;11.20;99.90
26595;DHT22;14238;49.496;8.154;2023-04-28T00:16:03;11.10;99.90
26595;DHT22;14238;49.496;8.154;2023-04-28T00:18:28;11.10;99.90
26595;DHT22;14238;49.496;8.154;2023-04-28T00:20:55;11.00;99.90
26595;DHT22;14238;49.496;8.154;2023-04-28T00:23:20;11.10;99.90
26595;DHT22;14238;49.496;8.154;2023-04-28T00:25:53;11.10;99.90
26595;DHT22;14238;49.496;8.154;2023-04-28T00:28:19;11.10;99.90
26595;DHT22;14238;49.496;8.154;2023-04-28T00:30:45;11.10;99.90
26595;DHT22;14238;49.496;8.154;2023-04-28T00:33:11;11.00;99.90
26595;DHT22;14238;49.496;8.154;2023-04-28T00:35:36;11.00;99.90
26595;DHT22;14238;49.496;8.154;2023-04-28T00:38:02;11.00;99.90
26595;DHT22;14238;49.496;8.154;2023-04-28T00:40:37;10.90;99.90
26595;DHT22;14238;49.496;8.154;2023-04-28T00:43:04;10.90;99.90
26595;DHT22;14238;49.496;8.154;2023-04-28T00:45:30;10.90;99.90
26595;DHT22;14238;49.496;8.154;2023-04-28T00:47:56;10.90;99.90
26595;DHT22;14238;49.496;8.154;2023-04-28T00:50:23;11.00;99.90
26595;DHT22;14238;49.496;8.154;2023-04-28T00:52:50;11.00;99.90
26595;DHT22;14238;49.496;8.154;2023-04-28T00:55:18;11.00;99.90
26595;DHT22;14238;49.496;8.154;2023-04-28T00:57:44;11.10;99.90
26595;DHT22;14238;49.496;8.154;2023-04-28T01:00:10;11.00;99.90
26595;DHT22;14238;49.496;8.154;2023-04-28T01:02:36;11.00;99.90
26595;DHT22;14238;49.496;8.154;2023-04-28T01:05:02;11.00;99.90
26595;DHT22;14238;49.496;8.154;2023-04-28T01:07:28;11.10;99.90
26595;DHT22;14238;49.496;8.154;2023-04-28T01:09:54;11.10;99.90
26595;DHT22;14238;49.496;8.154;2023-04-28T01:12:20;11.10;99.90
26595;DHT22;14238;49.496;8.154;2023-04-28T01:14:46;11.00;99.90
26595;DHT22;14238;49.496;8.154;2023-04-28T01:17:12;11.00;99.90
26595;DHT22;14238;49.496;8.154;2023-04-28T01:19:37;11.10;99.90
26595;DHT22;14238;49.496;8.154;2023-04-28T01:22:03;11.00;99.90
26595;DHT22;14238;49.496;8.154;2023-04-28T01:24:29;11.00;99.90
26595;DHT22;14238;49.496;8.154;2023-04-28T01:26:54;11.00;99.90
26595;DHT22;14238;49.496;8.154;2023-04-28T01:29:20;11.10;99.90
26595;DHT22;14238;49.496;8.154;2023-04-28T01:31:46;11.10;99.90
26595;DHT22;14238;49.496;8.154;2023-04-28T01:34:11;11.10;99.90
26595;DHT22;14238;49.496;8.154;2023-04-28T01:36:37;11.10;99.90
26595;DHT22;14238;49.496;8.154;2023-04-28T01:39:02;11.10;99.90
26595;DHT22;14238;49.496;8.154;2023-04-28T01:41:29;11.10;99.90
26595;DHT22;14238;49.496;8.154;2023-04-28T01:43:54;11.00;99.90
26595;DHT22;14238;49.496;8.154;2023-04-28T01:46:20;11.00;99.90
26595;DHT22;14238;49.496;8.154;2023-04-28T01:48:45;11.00;99.90
26595;DHT22;14238;49.496;8.154;2023-04-28T01:51:11;11.00;99.90
26595;DHT22;14238;49.496;8.154;2023-04-28T01:53:37;11.00;99.90
26595;DHT22;14238;49.496;8.154;2023-04-28T01:56:03;11.00;99.90
26595;DHT22;14238;49.496;8.154;2023-04-28T01:58:28;11.00;99.90
26595;DHT22;14238;49.496;8.154;2023-04-28T02:00:54;11.00;99.90
26595;DHT22;14238;49.496;8.154;2023-04-28T02:03:19;10.90;99.90
26595;DHT22;14238;49.496;8.154;2023-04-28T02:05:45;10.90;99.90
26595;DHT22;14238;49.496;8.154;2023-04-28T02:08:10;11.00;99.90
26595;DHT22;14238;49.496;8.154;2023-04-28T02:10:36;10.90;99.90
26595;DHT22;14238;49.496;8.154;2023-04-28T02:13:01;10.90;99.90
26595;DHT22;14238;49.496;8.154;2023-04-28T02:15:27;10.70;99.90
26595;DHT22;14238;49.496;8.154;2023-04-28T02:17:53;10.70;99.90
26595;DHT22;14238;49.496;8.154;2023-04-28T02:20:18;10.80;99.90
26595;DHT22;14238;49.496;8.154;2023-04-28T02:22:44;10.80;99.90
26595;DHT22;14238;49.496;8.154;2023-04-28T02:25:09;10.80;99.90
26595;DHT22;14238;49.496;8.154;2023-04-28T02:27:35;10.70;99.90
26595;DHT22;14238;49.496;8.154;2023-04-28T02:30:04;10.70;99.90
26595;DHT22;14238;49.496;8.154;2023-04-28T02:32:30;10.70;99.90
26595;DHT22;14238;49.496;8.154;2023-04-28T02:34:56;10.70;99.90
26595;DHT22;14238;49.496;8.154;2023-04-28T02:37:22;10.70;99.90
26595;DHT22;14238;49.496;8.154;2023-04-28T02:39:48;10.70;99.90
26595;DHT22;14238;49.496;8.154;2023-04-28T02:42:13;10.70;99.90
26595;DHT22;14238;49.496;8.154;2023-04-28T02:44:39;10.80;99.90
26595;DHT22;14238;49.496;8.154;2023-04-28T02:47:05;10.70;99.90
26595;DHT22;14238;49.496;8.154;2023-04-28T02:49:30;10.70;99.90
26595;DHT22;14238;49.496;8.154;2023-04-28T02:51:56;10.60;99.90
26595;DHT22;14238;49.496;8.154;2023-04-28T02:54:21;10.70;99.90
26595;DHT22;14238;49.496;8.154;2023-04-28T02:56:54;10.70;99.90
26595;DHT22;14238;49.496;8.154;2023-04-28T02:59:20;10.80;99.90
26595;DHT22;14238;49.496;8.154;2023-04-28T03:01:46;10.70;99.90
26595;DHT22;14238;49.496;8.154;2023-04-28T03:04:12;10.70;99.90
26595;DHT22;14238;49.496;8.154;2023-04-28T03:06:38;10.70;99.90
26595;DHT22;14238;49.496;8.154;2023-04-28T03:09:03;10.80;99.90
26595;DHT22;14238;49.496;8.154;2023-04-28T03:11:29;10.70;99.90
26595;DHT22;14238;49.496;8.154;2023-04-28T03:13:54;10.60;99.90
26595;DHT22;14238;49.496;8.154;2023-04-28T03:16:20;10.60;99.90
26595;DHT22;14238;49.496;8.154;2023-04-28T03:18:45;10.70;99.90
26595;DHT22;14238;49.496;8.154;2023-04-28T03:21:11;10.70;99.90
26595;DHT22;14238;49.496;8.154;2023-04-28T03:23:37;10.70;99.90
26595;DHT22;14238;49.496;8.154;2023-04-28T03:26:02;10.60;99.90
26595;DHT22;14238;49.496;8.154;2023-04-28T03:28:28;10.60;99.90
26595;DHT22;14238;49.496;8.154;2023-04-28T03:30:53;10.60;99.90
26595;DHT22;14238;49.496;8.154;2023-04-28T03:33:19;10.60;99.90
26595;DHT22;14238;49.496;8.154;2023-04-28T03:35:44;10.70;99.90
26595;DHT22;14238;49.496;8.154;2023-04-28T03:38:10;10.70;99.90
26595;DHT22;14238;49.496;8.154;2023-04-28T03:40:35;10.70;99.90
26595;DHT22;14238;49.496;8.154;2023-04-28T03:43:01;10.70;99.90
26595;DHT22;14238;49.496;8.154;2023-04-28T03:45:27;10.80;99.90
26595;DHT22;14238;49.496;8.154;2023-04-28T03:47:53;10.80;99.90
26595;DHT22;14238;49.496;8.154;2023-04-28T03:50:18;10.80;99.90
26595;DHT22;14238;49.496;8.154;2023-04-28T03:52:44;10.80;99.90
26595;DHT22;14238;49.496;8.154;2023-04-28T03:55:09;10.90;99.90
26595;DHT22;14238;49.496;8.154;2023-04-28T03:57:35;10.80;99.90
26595;DHT22;14238;49.496;8.154;2023-04-28T04:00:01;10.90;99.90
26595;DHT22;14238;49.496;8.154;2023-04-28T04:02:27;11.10;99.90
26595;DHT22;14238;49.496;8.154;2023-04-28T04:04:52;11.10;99.90
26595;DHT22;14238;49.496;8.154;2023-04-28T04:07:18;11.10;99.90
26595;DHT22;14238;49.496;8.154;2023-04-28T04:09:43;11.10;99.90
26595;DHT22;14238;49.496;8.154;2023-04-28T04:12:09;11.10;99.90
26595;DHT22;14238;49.496;8.154;2023-04-28T04:14:34;11.10;99.90
26595;DHT22;14238;49.496;8.154;2023-04-28T04:17:00;11.10;99.90
26595;DHT22;14238;49.496;8.154;2023-04-28T04:19:25;11.10;99.90
26595;DHT22;14238;49.496;8.154;2023-04-28T04:21:52;11.20;99.90
26595;DHT22;14238;49.496;8.154;2023-04-28T04:24:17;11.20;99.90
26595;DHT22;14238;49.496;8.154;2023-04-28T04:26:43;11.20;99.90
26595;DHT22;14238;49.496;8.154;2023-04-28T04:29:08;11.30;99.90
26595;DHT22;14238;49.496;8.154;2023-04-28T04:31:34;11.30;99.90
26595;DHT22;14238;49.496;8.154;2023-04-28T04:33:59;11.20;99.90
26595;DHT22;14238;49.496;8.154;2023-04-28T04:36:25;11.20;99.90
26595;DHT22;14238;49.496;8.154;2023-04-28T04:38:51;11.20;99.90
26595;DHT22;14238;49.496;8.154;2023-04-28T04:41:17;11.30;99.90
26595;DHT22;14238;49.496;8.154;2023-04-28T04:43:45;11.30;99.90
26595;DHT22;14238;49.496;8.154;2023-04-28T04:46:10;11.30;99.90
26595;DHT22;14238;49.496;8.154;2023-04-28T04:48:36;11.30;99.90
26595;DHT22;14238;49.496;8.154;2023-04-28T04:51:01;11.30;99.90
26595;DHT22;14238;49.496;8.154;2023-04-28T04:53:27;11.30;99.90
26595;DHT22;14238;49.496;8.154;2023-04-28T04:55:52;11.30;99.90
26595;DHT22;14238;49.496;8.154;2023-04-28T04:58:18;11.30;99.90
26595;DHT22;14238;49.496;8.154;2023-04-28T05:00:44;11.30;99.90
26595;DHT22;14238;49.496;8.154;2023-04-28T05:03:09;11.30;99.90
26595;DHT22;14238;49.496;8.154;2023-04-28T05:05:35;11.30;99.90
26595;DHT22;14238;49.496;8.154;2023-04-28T05:08:01;11.30;99.90
26595;DHT22;14238;49.496;8.154;2023-04-28T05:10:27;11.30;99.90
26595;DHT22;14238;49.496;8.154;2023-04-28T05:12:52;11.20;99.90
26595;DHT22;14238;49.496;8.154;2023-04-28T05:15:18;11.20;99.90
26595;DHT22;14238;49.496;8.154;2023-04-28T05:17:44;11.20;99.90
26595;DHT22;14238;49.496;8.154;2023-04-28T05:20:09;11.20;99.90
26595;DHT22;14238;49.496;8.154;2023-04-28T05:22:35;11.20;99.90
26595;DHT22;14238;49.496;8.154;2023-04-28T05:25:00;11.20;99.90
26595;DHT22;14238;49.496;8.154;2023-04-28T05:27:26;11.20;99.90
26595;DHT22;14238;49.496;8.154;2023-04-28T05:29:51;11.20;99.90
26595;DHT22;14238;49.496;8.154;2023-04-28T05:32:17;11.20;99.90
26595;DHT22;14238;49.496;8.154;2023-04-28T05:34:43;11.20;99.90
26595;DHT22;14238;49.496;8.154;2023-04-28T05:37:08;11.30;99.90
26595;DHT22;14238;49.496;8.154;2023-04-28T05:39:34;11.30;99.90
26595;DHT22;14238;49.496;8.154;2023-04-28T05:41:59;11.30;99.90
26595;DHT22;14238;49.496;8.154;2023-04-28T05:44:25;11.20;99.90
26595;DHT22;14238;49.496;8.154;2023-04-28T05:46:50;11.20;99.90
26595;DHT22;14238;49.496;8.154;2023-04-28T05:49:16;11.30;99.90
26595;DHT22;14238;49.496;8.154;2023-04-28T05:51:41;11.30;99.90
26595;DHT22;14238;49.496;8.154;2023-04-28T05:54:07;11.20;99.90
26595;DHT22;14238;49.496;8.154;2023-04-28T05:56:32;11.20;99.90
26595;DHT22;14238;49.496;8.154;2023-04-28T05:58:58;11.10;99.90
26595;DHT22;14238;49.496;8.154;2023-04-28T06:01:27;11.10;99.90
26595;DHT22;14238;49.496;8.154;2023-04-28T06:03:53;11.10;99.90
26595;DHT22;14238;49.496;8.154;2023-04-28T06:06:20;11.20;99.90
26595;DHT22;14238;49.496;8.154;2023-04-28T06:08:46;11.10;99.90
26595;DHT22;14238;49.496;8.154;2023-04-28T06:11:12;11.00;99.90
26595;DHT22;14238;49.496;8.154;2023-04-28T06:13:37;11.10;99.90
26595;DHT22;14238;49.496;8.154;2023-04-28T06:16:03;11.10;99.90
26595;DHT22;14238;49.496;8.154;2023-04-28T06:18:29;11.10;99.90
26595;DHT22;14238;49.496;8.154;2023-04-28T06:20:56;11.00;99.90
26595;DHT22;14238;49.496;8.154;2023-04-28T06:23:23;11.00;99.90
26595;DHT22;14238;49.496;8.154;2023-04-28T06:25:49;11.10;99.90
26595;DHT22;14238;49.496;8.154;2023-04-28T06:28:14;11.00;99.90
26595;DHT22;14238;49.496;8.154;2023-04-28T06:30:40;11.10;99.90
26595;DHT22;14238;49.496;8.154;2023-04-28T06:33:06;11.10;99.90
26595;DHT22;14238;49.496;8.154;2023-04-28T06:35:32;11.10;99.90
26595;DHT22;14238;49.496;8.154;2023-04-28T06:38:01;11.00;99.90
26595;DHT22;14238;49.496;8.154;2023-04-28T06:40:26;11.00;99.90
26595;DHT22;14238;49.496;8.154;2023-04-28T06:42:52;11.10;99.90
26595;DHT22;14238;49.496;8.154;2023-04-28T06:45:17;11.10;99.90
26595;DHT22;14238;49.496;8.154;2023-04-28T06:47:43;11.10;99.90
26595;DHT22;14238;49.496;8.154;2023-04-28T06:50:09;11.10;99.90
26595;DHT22;14238;49.496;8.154;2023-04-28T06:52:34;11.10;99.90
26595;DHT22;14238;49.496;8.154;2023-04-28T06:55:00;11.10;99.90
26595;DHT22;14238;49.496;8.154;2023-04-28T06:57:26;11.20;99.90
26595;DHT22;14238;49.496;8.154;2023-04-28T06:59:51;11.20;99.90
26595;DHT22;14238;49.496;8.154;2023-04-28T07:02:17;11.30;99.90
26595;DHT22;14238;49.496;8.154;2023-04-28T07:04:42;11.30;99.90
26595;DHT22;14238;49.496;8.154;2023-04-28T07:07:08;11.20;99.90
26595;DHT22;14238;49.496;8.154;2023-04-28T07:09:34;11.30;99.90
26595;DHT22;14238;49.496;8.154;2023-04-28T07:12:00;11.50;99.90
26595;DHT22;14238;49.496;8.154;2023-04-28T07:14:26;11.70;99.90
26595;DHT22;14238;49.496;8.154;2023-04-28T07:16:51;11.80;99.90
26595;DHT22;14238;49.496;8.154;2023-04-28T07:19:17;11.90;99.90
26595;DHT22;14238;49.496;8.154;2023-04-28T07:21:42;11.90;99.90
26595;DHT22;14238;49.496;8.154;2023-04-28T07:24:08;12.00;99.90
26595;DHT22;14238;49.496;8.154;2023-04-28T07:26:34;11.90;99.90
26595;DHT22;14238;49.496;8.154;2023-04-28T07:28:59;11.70;99.90
26595;DHT22;14238;49.496;8.154;2023-04-28T07:31:26;11.80;99.90
26595;DHT22;14238;49.496;8.154;2023-04-28T07:33:51;11.80;99.90
26595;DHT22;14238;49.496;8.154;2023-04-28T07:36:17;11.80;99.90
26595;DHT22;14238;49.496;8.154;2023-04-28T07:38:42;11.80;99.90
26595;DHT22;14238;49.496;8.154;2023-04-28T07:41:08;11.80;99.90
26595;DHT22;14238;49.496;8.154;2023-04-28T07:43:34;11.80;99.90
26595;DHT22;14238;49.496;8.154;2023-04-28T07:46:00;11.80;99.90
26595;DHT22;14238;49.496;8.154;2023-04-28T07:48:25;11.90;99.90
26595;DHT22;14238;49.496;8.154;2023-04-28T07:50:52;11.90;99.90
26595;DHT22;14238;49.496;8.154;2023-04-28T07:53:17;12.00;99.90
26595;DHT22;14238;49.496;8.154;2023-04-28T07:55:43;12.10;99.90
26595;DHT22;14238;49.496;8.154;2023-04-28T07:58:10;12.10;99.90
26595;DHT22;14238;49.496;8.154;2023-04-28T08:00:36;12.20;99.90
26595;DHT22;14238;49.496;8.154;2023-04-28T08:03:02;12.40;99.90
26595;DHT22;14238;49.496;8.154;2023-04-28T08:05:28;12.50;99.90
26595;DHT22;14238;49.496;8.154;2023-04-28T08:07:53;12.40;99.90
26595;DHT22;14238;49.496;8.154;2023-04-28T08:10:19;12.40;99.90
26595;DHT22;14238;49.496;8.154;2023-04-28T08:12:44;12.40;99.90
26595;DHT22;14238;49.496;8.154;2023-04-28T08:15:10;12.50;99.90
26595;DHT22;14238;49.496;8.154;2023-04-28T08:17:36;12.80;99.90
26595;DHT22;14238;49.496;8.154;2023-04-28T08:20:02;12.90;99.90
26595;DHT22;14238;49.496;8.154;2023-04-28T08:22:27;13.00;99.90
26595;DHT22;14238;49.496;8.154;2023-04-28T08:24:53;13.10;99.90
26595;DHT22;14238;49.496;8.154;2023-04-28T08:27:18;13.30;99.90
26595;DHT22;14238;49.496;8.154;2023-04-28T08:29:44;13.30;99.90
26595;DHT22;14238;49.496;8.154;2023-04-28T08:32:10;13.30;99.90
26595;DHT22;14238;49.496;8.154;2023-04-28T08:34:35;13.30;99.90
26595;DHT22;14238;49.496;8.154;2023-04-28T08:37:01;13.40;99.90
26595;DHT22;14238;49.496;8.154;2023-04-28T08:39:27;13.60;99.90
26595;DHT22;14238;49.496;8.154;2023-04-28T08:41:52;13.70;99.90
26595;DHT22;14238;49.496;8.154;2023-04-28T08:44:18;13.80;99.90
26595;DHT22;14238;49.496;8.154;2023-04-28T08:46:45;13.80;99.90
26595;DHT22;14238;49.496;8.154;2023-04-28T08:49:14;13.60;99.90
26595;DHT22;14238;49.496;8.154;2023-04-28T08:51:44;13.70;99.90
26595;DHT22;14238;49.496;8.154;2023-04-28T08:54:13;13.80;99.90
26595;DHT22;14238;49.496;8.154;2023-04-28T08:56:40;13.90;99.90
26595;DHT22;14238;49.496;8.154;2023-04-28T09:04:01;14.00;99.90
26595;DHT22;14238;49.496;8.154;2023-04-28T09:06:37;14.00;99.90
26595;DHT22;14238;49.496;8.154;2023-04-28T09:09:22;14.30;99.90
26595;DHT22;14238;49.496;8.154;2023-04-28T09:11:59;14.40;99.90
26595;DHT22;14238;49.496;8.154;2023-04-28T09:14:29;14.40;99.90
26595;DHT22;14238;49.496;8.154;2023-04-28T09:16:56;14.40;99.90
26595;DHT22;14238;49.496;8.154;2023-04-28T09:19:21;14.40;99.90
26595;DHT22;14238;49.496;8.154;2023-04-28T09:21:55;14.50;99.90
26595;DHT22;14238;49.496;8.154;2023-04-28T09:24:36;14.80;99.90
26595;DHT22;14238;49.496;8.154;2023-04-28T09:27:05;15.00;99.90
26595;DHT22;14238;49.496;8.154;2023-04-28T09:29:36;15.10;99.90
26595;DHT22;14238;49.496;8.154;2023-04-28T09:32:17;15.20;99.90
26595;DHT22;14238;49.496;8.154;2023-04-28T09:34:48;14.90;99.90
26595;DHT22;14238;49.496;8.154;2023-04-28T09:37:22;15.00;99.90
26595;DHT22;14238;49.496;8.154;2023-04-28T09:39:52;15.00;99.90
26595;DHT22;14238;49.496;8.154;2023-04-28T09:42:41;14.90;99.90
26595;DHT22;14238;49.496;8.154;2023-04-28T09:45:14;14.70;99.90
26595;DHT22;14238;49.496;8.154;2023-04-28T09:47:42;14.70;99.90
26595;DHT22;14238;49.496;8.154;2023-04-28T09:50:09;14.60;99.90
26595;DHT22;14238;49.496;8.154;2023-04-28T09:52:37;14.70;99.90
26595;DHT22;14238;49.496;8.154;2023-04-28T09:55:04;14.60;99.90
26595;DHT22;14238;49.496;8.154;2023-04-28T09:57:31;14.60;99.90
26595;DHT22;14238;49.496;8.154;2023-04-28T09:59:58;14.70;99.90
26595;DHT22;14238;49.496;8.154;2023-04-28T10:02:24;14.60;99.90
26595;DHT22;14238;49.496;8.154;2023-04-28T10:04:51;14.60;99.90
26595;DHT22;14238;49.496;8.154;2023-04-28T10:07:18;14.50;99.90
26595;DHT22;14238;49.496;8.154;2023-04-28T10:09:45;14.40;99.90
26595;DHT22;14238;49.496;8.154;2023-04-28T10:12:19;14.30;99.90
26595;DHT22;14238;49.496;8.154;2023-04-28T10:14:45;14.30;99.90
26595;DHT22;14238;49.496;8.154;2023-04-28T10:17:14;14.30;99.90
26595;DHT22;14238;49.496;8.154;2023-04-28T10:19:41;14.20;99.90
26595;DHT22;14238;49.496;8.154;2023-04-28T10:27:29;14.30;99.90
26595;DHT22;14238;49.496;8.154;2023-04-28T10:30:09;14.30;99.90
26595;DHT22;14238;49.496;8.154;2023-04-28T10:32:35;14.40;99.90
26595;DHT22;14238;49.496;8.154;2023-04-28T10:43:09;15.20;99.90
26595;DHT22;14238;49.496;8.154;2023-04-28T10:45:57;15.20;99.90
26595;DHT22;14238;49.496;8.154;2023-04-28T10:56:21;15.30;99.90
26595;DHT22;14238;49.496;8.154;2023-04-28T10:58:58;15.10;99.90
26595;DHT22;14238;49.496;8.154;2023-04-28T11:01:28;15.00;99.90
26595;DHT22;14238;49.496;8.154;2023-04-28T11:04:04;15.10;99.90
26595;DHT22;14238;49.496;8.154;2023-04-28T11:06:42;15.00;99.90
26595;DHT22;14238;49.496;8.154;2023-04-28T11:11:37;15.00;99.90
26595;DHT22;14238;49.496;8.154;2023-04-28T11:19:21;14.80;99.90
26595;DHT22;14238;49.496;8.154;2023-04-28T11:21:49;14.80;99.90
26595;DHT22;14238;49.496;8.154;2023-04-28T11:24:16;14.70;99.90
26595;DHT22;14238;49.496;8.154;2023-04-28T11:26:43;14.60;99.90
26595;DHT22;14238;49.496;8.154;2023-04-28T11:29:10;14.70;99.90
26595;DHT22;14238;49.496;8.154;2023-04-28T11:31:36;14.60;99.90
26595;DHT22;14238;49.496;8.154;2023-04-28T11:34:08;14.70;99.90
26595;DHT22;14238;49.496;8.154;2023-04-28T11:36:40;14.70;99.90
26595;DHT22;14238;49.496;8.154;2023-04-28T11:39:10;14.60;99.90
26595;DHT22;14238;49.496;8.154;2023-04-28T11:41:41;14.70;99.90
26595;DHT22;14238;49.496;8.154;2023-04-28T11:44:20;14.70;99.90
26595;DHT22;14238;49.496;8.154;2023-04-28T11:46:51;14.70;99.90
26595;DHT22;14238;49.496;8.154;2023-04-28T11:49:42;14.70;99.90
26595;DHT22;14238;49.496;8.154;2023-04-28T11:52:08;14.60;99.90
26595;DHT22;14238;49.496;8.154;2023-04-28T11:54:34;14.60;99.90
26595;DHT22;14238;49.496;8.154;2023-04-28T11:57:02;14.60;99.90
26595;DHT22;14238;49.496;8.154;2023-04-28T11:59:35;14.60;99.90
26595;DHT22;14238;49.496;8.154;2023-04-28T12:02:05;14.60;99.90
26595;DHT22;14238;49.496;8.154;2023-04-28T12:04:40;14.60;99.90
26595;DHT22;14238;49.496;8.154;2023-04-28T12:07:10;14.70;99.90
26595;DHT22;14238;49.496;8.154;2023-04-28T12:09:39;14.70;99.90
26595;DHT22;14238;49.496;8.154;2023-04-28T12:12:07;14.70;99.90
26595;DHT22;14238;49.496;8.154;2023-04-28T12:14:54;14.70;99.90
26595;DHT22;14238;49.496;8.154;2023-04-28T12:17:33;14.80;99.90
26595;DHT22;14238;49.496;8.154;2023-04-28T12:20:07;14.80;99.90
26595;DHT22;14238;49.496;8.154;2023-04-28T12:22:49;14.90;99.90
26595;DHT22;14238;49.496;8.154;2023-04-28T12:25:18;15.10;99.90
26595;DHT22;14238;49.496;8.154;2023-04-28T12:28:01;15.20;99.90
26595;DHT22;14238;49.496;8.154;2023-04-28T12:30:28;15.40;99.90
26595;DHT22;14238;49.496;8.154;2023-04-28T12:32:53;15.60;99.90
26595;DHT22;14238;49.496;8.154;2023-04-28T12:35:24;15.70;99.90
26595;DHT22;14238;49.496;8.154;2023-04-28T12:37:51;15.80;99.90
26595;DHT22;14238;49.496;8.154;2023-04-28T12:40:17;16.00;99.90
26595;DHT22;14238;49.496;8.154;2023-04-28T12:42:43;16.00;99.90
26595;DHT22;14238;49.496;8.154;2023-04-28T12:45:09;16.20;99.90
26595;DHT22;14238;49.496;8.154;2023-04-28T12:47:35;16.20;99.90
26595;DHT22;14238;49.496;8.154;2023-04-28T12:50:00;16.40;99.90
26595;DHT22;14238;49.496;8.154;2023-04-28T12:52:26;16.50;99.90
26595;DHT22;14238;49.496;8.154;2023-04-28T12:54:51;16.60;99.90
26595;DHT22;14238;49.496;8.154;2023-04-28T12:57:18;16.60;99.90
26595;DHT22;14238;49.496;8.154;2023-04-28T12:59:45;16.60;99.90
26595;DHT22;14238;49.496;8.154;2023-04-28T13:02:13;16.60;99.90
26595;DHT22;14238;49.496;8.154;2023-04-28T13:04:39;16.50;99.90
26595;DHT22;14238;49.496;8.154;2023-04-28T13:07:07;16.60;99.90
26595;DHT22;14238;49.496;8.154;2023-04-28T13:09:33;16.60;99.90
26595;DHT22;14238;49.496;8.154;2023-04-28T13:11:58;16.90;99.90
26595;DHT22;14238;49.496;8.154;2023-04-28T13:14:25;17.10;99.90
26595;DHT22;14238;49.496;8.154;2023-04-28T13:16:51;17.00;99.90
26595;DHT22;14238;49.496;8.154;2023-04-28T13:19:17;17.20;99.90
26595;DHT22;14238;49.496;8.154;2023-04-28T13:21:43;17.40;99.90
26595;DHT22;14238;49.496;8.154;2023-04-28T13:24:09;17.30;99.90
26595;DHT22;14238;49.496;8.154;2023-04-28T13:26:35;17.50;99.90
26595;DHT22;14238;49.496;8.154;2023-04-28T13:29:02;17.60;99.90
26595;DHT22;14238;49.496;8.154;2023-04-28T13:31:29;17.70;99.90
26595;DHT22;14238;49.496;8.154;2023-04-28T13:33:55;17.60;99.90
26595;DHT22;14238;49.496;8.154;2023-04-28T13:36:20;17.50;99.90
26595;DHT22;14238;49.496;8.154;2023-04-28T13:38:46;17.40;99.90
26595;DHT22;14238;49.496;8.154;2023-04-28T13:41:14;17.20;99.90
26595;DHT22;14238;49.496;8.154;2023-04-28T13:43:40;17.20;99.90
26595;DHT22;14238;49.496;8.154;2023-04-28T13:46:06;17.20;99.90
26595;DHT22;14238;49.496;8.154;2023-04-28T13:48:33;17.20;99.90
26595;DHT22;14238;49.496;8.154;2023-04-28T13:51:00;17.00;99.90
26595;DHT22;14238;49.496;8.154;2023-04-28T13:53:26;16.90;99.90
26595;DHT22;14238;49.496;8.154;2023-04-28T13:55:52;16.80;99.90
26595;DHT22;14238;49.496;8.154;2023-04-28T13:58:18;16.50;99.90
26595;DHT22;14238;49.496;8.154;2023-04-28T14:00:44;16.10;99.90
26595;DHT22;14238;49.496;8.154;2023-04-28T14:03:10;15.80;99.90
26595;DHT22;14238;49.496;8.154;2023-04-28T14:05:36;15.80;99.90
26595;DHT22;14238;49.496;8.154;2023-04-28T14:08:02;15.70;99.90
26595;DHT22;14238;49.496;8.154;2023-04-28T14:10:28;15.60;99.90
26595;DHT22;14238;49.496;8.154;2023-04-28T14:12:54;15.40;99.90
26595;DHT22;14238;49.496;8.154;2023-04-28T14:15:19;15.40;99.90
26595;DHT22;14238;49.496;8.154;2023-04-28T14:17:45;15.40;99.90
26595;DHT22;14238;49.496;8.154;2023-04-28T14:20:12;15.40;99.90
26595;DHT22;14238;49.496;8.154;2023-04-28T14:22:38;15.30;99.90
26595;DHT22;14238;49.496;8.154;2023-04-28T14:25:05;15.40;99.90
26595;DHT22;14238;49.496;8.154;2023-04-28T14:27:30;15.50;99.90
26595;DHT22;14238;49.496;8.154;2023-04-28T14:29:57;15.60;99.90
26595;DHT22;14238;49.496;8.154;2023-04-28T14:32:22;15.60;99.90
26595;DHT22;14238;49.496;8.154;2023-04-28T14:34:48;15.80;99.90
26595;DHT22;14238;49.496;8.154;2023-04-28T14:37:15;15.80;99.90
26595;DHT22;14238;49.496;8.154;2023-04-28T14:39:42;15.80;99.90
26595;DHT22;14238;49.496;8.154;2023-04-28T14:42:07;15.80;99.90
26595;DHT22;14238;49.496;8.154;2023-04-28T14:44:33;15.90;99.90
26595;DHT22;14238;49.496;8.154;2023-04-28T14:47:00;15.80;99.90
26595;DHT22;14238;49.496;8.154;2023-04-28T14:49:25;15.90;99.90
26595;DHT22;14238;49.496;8.154;2023-04-28T14:51:52;15.80;99.90
26595;DHT22;14238;49.496;8.154;2023-04-28T14:54:18;15.70;99.90
26595;DHT22;14238;49.496;8.154;2023-04-28T14:56:44;15.70;99.90
26595;DHT22;14238;49.496;8.154;2023-04-28T14:59:09;15.80;99.90
26595;DHT22;14238;49.496;8.154;2023-04-28T15:01:36;15.80;99.90
26595;DHT22;14238;49.496;8.154;2023-04-28T15:04:02;16.00;99.90
26595;DHT22;14238;49.496;8.154;2023-04-28T15:06:28;16.00;99.90
26595;DHT22;14238;49.496;8.154;2023-04-28T15:08:53;16.10;99.90
26595;DHT22;14238;49.496;8.154;2023-04-28T15:11:19;16.20;99.90
26595;DHT22;14238;49.496;8.154;2023-04-28T15:13:45;16.60;99.90
26595;DHT22;14238;49.496;8.154;2023-04-28T15:16:10;17.00;99.90
26595;DHT22;14238;49.496;8.154;2023-04-28T15:18:36;17.20;99.90
26595;DHT22;14238;49.496;8.154;2023-04-28T15:21:02;17.20;99.90
26595;DHT22;14238;49.496;8.154;2023-04-28T15:23:27;17.30;99.90
26595;DHT22;14238;49.496;8.154;2023-04-28T15:25:53;17.50;99.90
26595;DHT22;14238;49.496;8.154;2023-04-28T15:28:18;18.00;99.90
26595;DHT22;14238;49.496;8.154;2023-04-28T15:30:44;18.20;99.90
26595;DHT22;14238;49.496;8.154;2023-04-28T15:33:10;18.30;99.90
26595;DHT22;14238;49.496;8.154;2023-04-28T15:35:42;18.70;99.90
26595;DHT22;14238;49.496;8.154;2023-04-28T15:38:08;18.60;99.90
26595;DHT22;14238;49.496;8.154;2023-04-28T15:40:38;18.40;99.90
26595;DHT22;14238;49.496;8.154;2023-04-28T15:43:08;18.10;99.90
26595;DHT22;14238;49.496;8.154;2023-04-28T15:45:34;17.90;99.90
26595;DHT22;14238;49.496;8.154;2023-04-28T15:48:00;17.90;99.90
26595;DHT22;14238;49.496;8.154;2023-04-28T15:50:26;18.30;99.90
26595;DHT22;14238;49.496;8.154;2023-04-28T15:52:52;18.70;99.90
26595;DHT22;14238;49.496;8.154;2023-04-28T15:55:19;19.00;99.90
26595;DHT22;14238;49.496;8.154;2023-04-28T15:57:46;19.00;99.90
26595;DHT22;14238;49.496;8.154;2023-04-28T16:00:13;18.90;99.90
26595;DHT22;14238;49.496;8.154;2023-04-28T16:02:40;18.70;99.90